sensor_id;sensor_type;location;lat;lon;timestamp;temperature;humidity
2112;DHT22;1062;52.538;13.400;2022-07-12T00:01:02;15.20;99.90
2112;DHT22;1062;52.538;13.400;2022-07-12T00:03:30;15.30;99.90
2112;DHT22;1062;52.538;13.400;2022-07-12T00:05:56;15.30;99.90
2112;DHT22;1062;52.538;13.400;2022-07-12T00:08:23;15.30;99.90
2112;DHT22;1062;52.538;13.400;2022-07-12T00:10:48;15.30;99.90
2112;DHT22;1062;52.538;13.400;2022-07-12T00:13:14;15.20;99.90
2112;DHT22;1062;52.538;13.400;2022-07-12T00:15:41;15.10;99.90
2112;DHT22;1062;52.538;13.400;2022-07-12T00:18:07;15.00;99.90
2112;DHT22;1062;52.538;13.400;2022-07-12T00:20:33;14.90;99.90
2112;DHT22;1062;52.538;13.400;2022-07-12T00:22:58;14.80;99.90
2112;DHT22;1062;52.538;13.400;2022-07-12T00:25:24;14.80;99.90
2112;DHT22;1062;52.538;13.400;2022-07-12T00:27:51;14.80;99.90
2112;DHT22;1062;52.538;13.400;2022-07-12T00:30:17;14.80;99.90
2112;DHT22;1062;52.538;13.400;2022-07-12T00:32:42;14.80;99.90
2112;DHT22;1062;52.538;13.400;2022-07-12T00:35:08;14.70;99.90
2112;DHT22;1062;52.538;13.400;2022-07-12T00:37:34;14.60;99.90
2112;DHT22;1062;52.538;13.400;2022-07-12T00:39:59;14.70;99.90
2112;DHT22;1062;52.538;13.400;2022-07-12T00:42:26;14.70;99.90
2112;DHT22;1062;52.538;13.400;2022-07-12T00:44:52;14.60;99.90
2112;DHT22;1062;52.538;13.400;2022-07-12T00:48:04;14.60;99.90
2112;DHT22;1062;52.538;13.400;2022-07-12T00:50:16;14.60;99.90
2112;DHT22;1062;52.538;13.400;2022-07-12T00:52:43;14.50;99.90
2112;DHT22;1062;52.538;13.400;2022-07-12T00:55:10;14.50;99.90
2112;DHT22;1062;52.538;13.400;2022-07-12T00:57:38;14.50;99.90
2112;DHT22;1062;52.538;13.400;2022-07-12T01:00:07;14.50;99.90
2112;DHT22;1062;52.538;13.400;2022-07-12T01:02:34;14.50;99.90
2112;DHT22;1062;52.538;13.400;2022-07-12T01:05:00;14.50;99.90
2112;DHT22;1062;52.538;13.400;2022-07-12T01:07:28;14.60;99.90
2112;DHT22;1062;52.538;13.400;2022-07-12T01:09:54;14.70;99.90
2112;DHT22;1062;52.538;13.400;2022-07-12T01:12:21;14.50;99.90
2112;DHT22;1062;52.538;13.400;2022-07-12T01:14:47;14.40;99.90
2112;DHT22;1062;52.538;13.400;2022-07-12T01:17:14;14.40;99.90
2112;DHT22;1062;52.538;13.400;2022-07-12T01:19:40;14.40;99.90
2112;DHT22;1062;52.538;13.400;2022-07-12T01:22:09;14.30;99.90
2112;DHT22;1062;52.538;13.400;2022-07-12T01:24:35;14.30;99.90
2112;DHT22;1062;52.538;13.400;2022-07-12T01:27:05;14.20;99.90
2112;DHT22;1062;52.538;13.400;2022-07-12T01:29:31;14.20;99.90
2112;DHT22;1062;52.538;13.400;2022-07-12T01:32:00;14.20;99.90
2112;DHT22;1062;52.538;13.400;2022-07-12T01:34:47;14.10;99.90
2112;DHT22;1062;52.538;13.400;2022-07-12T01:37:14;14.10;99.90
2112;DHT22;1062;52.538;13.400;2022-07-12T01:39:40;14.00;99.90
2112;DHT22;1062;52.538;13.400;2022-07-12T01:42:06;14.10;99.90
2112;DHT22;1062;52.538;13.400;2022-07-12T01:44:32;14.10;99.90
2112;DHT22;1062;52.538;13.400;2022-07-12T01:46:58;14.00;99.90
2112;DHT22;1062;52.538;13.400;2022-07-12T01:49:24;14.00;99.90
2112;DHT22;1062;52.538;13.400;2022-07-12T01:51:50;13.90;99.90
2112;DHT22;1062;52.538;13.400;2022-07-12T01:54:15;13.90;99.90
2112;DHT22;1062;52.538;13.400;2022-07-12T01:56:41;13.80;99.90
2112;DHT22;1062;52.538;13.400;2022-07-12T01:59:07;13.80;99.90
2112;DHT22;1062;52.538;13.400;2022-07-12T02:01:33;13.80;99.90
2112;DHT22;1062;52.538;13.400;2022-07-12T02:04:05;13.80;99.90
2112;DHT22;1062;52.538;13.400;2022-07-12T02:06:30;13.70;99.90
2112;DHT22;1062;52.538;13.400;2022-07-12T02:08:56;13.70;99.90
2112;DHT22;1062;52.538;13.400;2022-07-12T02:11:22;13.60;99.90
2112;DHT22;1062;52.538;13.400;2022-07-12T02:13:47;13.60;99.90
2112;DHT22;1062;52.538;13.400;2022-07-12T02:16:13;13.60;99.90
2112;DHT22;1062;52.538;13.400;2022-07-12T02:18:38;13.60;99.90
2112;DHT22;1062;52.538;13.400;2022-07-12T02:21:04;13.60;99.90
2112;DHT22;1062;52.538;13.400;2022-07-12T02:23:30;13.60;99.90
2112;DHT22;1062;52.538;13.400;2022-07-12T02:25:55;13.50;99.90
2112;DHT22;1062;52.538;13.400;2022-07-12T02:28:21;13.50;99.90
2112;DHT22;1062;52.538;13.400;2022-07-12T02:30:46;13.40;99.90
2112;DHT22;1062;52.538;13.400;2022-07-12T02:33:12;13.40;99.90
2112;DHT22;1062;52.538;13.400;2022-07-12T02:35:41;13.40;99.90
2112;DHT22;1062;52.538;13.400;2022-07-12T02:38:07;13.40;99.90
2112;DHT22;1062;52.538;13.400;2022-07-12T02:40:32;13.30;99.90
2112;DHT22;1062;52.538;13.400;2022-07-12T02:43:16;13.30;99.90
2112;DHT22;1062;52.538;13.400;2022-07-12T02:45:42;13.30;99.90
2112;DHT22;1062;52.538;13.400;2022-07-12T02:48:07;13.30;99.90
2112;DHT22;1062;52.538;13.400;2022-07-12T02:50:36;13.20;99.90
2112;DHT22;1062;52.538;13.400;2022-07-12T02:53:03;13.20;99.90
2112;DHT22;1062;52.538;13.400;2022-07-12T02:55:28;13.20;99.90
2112;DHT22;1062;52.538;13.400;2022-07-12T02:57:54;13.20;99.90
2112;DHT22;1062;52.538;13.400;2022-07-12T03:00:20;13.30;99.90
2112;DHT22;1062;52.538;13.400;2022-07-12T03:02:46;13.20;99.90
2112;DHT22;1062;52.538;13.400;2022-07-12T03:05:11;13.20;99.90
2112;DHT22;1062;52.538;13.400;2022-07-12T03:07:37;13.20;99.90
2112;DHT22;1062;52.538;13.400;2022-07-12T03:10:03;13.20;99.90
2112;DHT22;1062;52.538;13.400;2022-07-12T03:12:29;13.20;99.90
2112;DHT22;1062;52.538;13.400;2022-07-12T03:14:55;13.20;99.90
2112;DHT22;1062;52.538;13.400;2022-07-12T03:17:21;13.30;99.90
2112;DHT22;1062;52.538;13.400;2022-07-12T03:19:46;13.30;99.90
2112;DHT22;1062;52.538;13.400;2022-07-12T03:22:12;13.40;99.90
2112;DHT22;1062;52.538;13.400;2022-07-12T03:24:37;13.40;99.90
2112;DHT22;1062;52.538;13.400;2022-07-12T03:27:03;13.50;99.90
2112;DHT22;1062;52.538;13.400;2022-07-12T03:29:29;13.50;99.90
2112;DHT22;1062;52.538;13.400;2022-07-12T03:31:54;13.70;99.90
2112;DHT22;1062;52.538;13.400;2022-07-12T03:34:20;13.70;99.90
2112;DHT22;1062;52.538;13.400;2022-07-12T03:36:45;13.70;99.90
2112;DHT22;1062;52.538;13.400;2022-07-12T03:39:11;13.70;99.90
2112;DHT22;1062;52.538;13.400;2022-07-12T03:41:37;13.80;99.90
2112;DHT22;1062;52.538;13.400;2022-07-12T03:44:03;13.70;99.90
2112;DHT22;1062;52.538;13.400;2022-07-12T03:46:29;13.70;99.90
2112;DHT22;1062;52.538;13.400;2022-07-12T03:48:54;13.70;99.90
2112;DHT22;1062;52.538;13.400;2022-07-12T03:51:20;13.80;99.90
2112;DHT22;1062;52.538;13.400;2022-07-12T03:53:45;13.90;99.90
2112;DHT22;1062;52.538;13.400;2022-07-12T03:56:11;13.80;99.90
2112;DHT22;1062;52.538;13.400;2022-07-12T03:58:57;13.80;99.90
2112;DHT22;1062;52.538;13.400;2022-07-12T04:01:22;13.80;99.90
2112;DHT22;1062;52.538;13.400;2022-07-12T04:03:48;13.80;99.90
2112;DHT22;1062;52.538;13.400;2022-07-12T04:06:13;13.80;99.90
2112;DHT22;1062;52.538;13.400;2022-07-12T04:08:39;13.80;99.90
2112;DHT22;1062;52.538;13.400;2022-07-12T04:11:05;13.90;99.90
2112;DHT22;1062;52.538;13.400;2022-07-12T04:13:31;13.90;99.90
2112;DHT22;1062;52.538;13.400;2022-07-12T04:15:57;14.00;99.90
2112;DHT22;1062;52.538;13.400;2022-07-12T04:18:24;14.00;99.90
2112;DHT22;1062;52.538;13.400;2022-07-12T04:20:49;14.10;99.90
2112;DHT22;1062;52.538;13.400;2022-07-12T04:23:15;14.10;99.90
2112;DHT22;1062;52.538;13.400;2022-07-12T04:25:40;14.30;99.90
2112;DHT22;1062;52.538;13.400;2022-07-12T04:28:06;14.50;99.90
2112;DHT22;1062;52.538;13.400;2022-07-12T04:30:32;15.50;99.90
2112;DHT22;1062;52.538;13.400;2022-07-12T04:32:57;16.60;99.90
2112;DHT22;1062;52.538;13.400;2022-07-12T04:35:23;17.40;99.90
2112;DHT22;1062;52.538;13.400;2022-07-12T04:37:48;17.90;99.90
2112;DHT22;1062;52.538;13.400;2022-07-12T04:40:14;18.40;99.90
2112;DHT22;1062;52.538;13.400;2022-07-12T04:42:39;19.00;99.90
2112;DHT22;1062;52.538;13.400;2022-07-12T04:45:06;19.00;99.90
2112;DHT22;1062;52.538;13.400;2022-07-12T04:47:31;19.30;99.90
2112;DHT22;1062;52.538;13.400;2022-07-12T04:50:00;19.20;99.90
2112;DHT22;1062;52.538;13.400;2022-07-12T04:52:28;19.00;99.90
2112;DHT22;1062;52.538;13.400;2022-07-12T04:54:53;18.70;99.90
2112;DHT22;1062;52.538;13.400;2022-07-12T04:57:19;18.30;99.90
2112;DHT22;1062;52.538;13.400;2022-07-12T04:59:45;18.50;99.90
2112;DHT22;1062;52.538;13.400;2022-07-12T05:02:10;18.80;99.90
2112;DHT22;1062;52.538;13.400;2022-07-12T05:04:36;19.30;99.90
2112;DHT22;1062;52.538;13.400;2022-07-12T05:07:01;19.90;99.90
2112;DHT22;1062;52.538;13.400;2022-07-12T05:09:27;20.00;99.90
2112;DHT22;1062;52.538;13.400;2022-07-12T05:11:52;20.60;99.90
2112;DHT22;1062;52.538;13.400;2022-07-12T05:14:18;20.60;99.90
2112;DHT22;1062;52.538;13.400;2022-07-12T05:16:43;21.20;99.90
2112;DHT22;1062;52.538;13.400;2022-07-12T05:19:09;21.10;99.90
2112;DHT22;1062;52.538;13.400;2022-07-12T05:21:35;21.30;99.90
2112;DHT22;1062;52.538;13.400;2022-07-12T05:24:02;21.10;99.90
2112;DHT22;1062;52.538;13.400;2022-07-12T05:26:29;21.50;99.90
2112;DHT22;1062;52.538;13.400;2022-07-12T05:28:55;21.40;99.90
2112;DHT22;1062;52.538;13.400;2022-07-12T05:31:20;22.00;99.90
2112;DHT22;1062;52.538;13.400;2022-07-12T05:33:46;21.40;99.90
2112;DHT22;1062;52.538;13.400;2022-07-12T05:36:11;21.80;99.90
2112;DHT22;1062;52.538;13.400;2022-07-12T05:38:37;21.80;99.90
2112;DHT22;1062;52.538;13.400;2022-07-12T05:41:02;22.30;98.00
2112;DHT22;1062;52.538;13.400;2022-07-12T05:43:28;21.80;98.50
2112;DHT22;1062;52.538;13.400;2022-07-12T05:45:54;22.80;98.00
2112;DHT22;1062;52.538;13.400;2022-07-12T05:48:20;23.20;96.20
2112;DHT22;1062;52.538;13.400;2022-07-12T05:50:46;23.60;95.70
2112;DHT22;1062;52.538;13.400;2022-07-12T05:53:12;23.90;94.80
2112;DHT22;1062;52.538;13.400;2022-07-12T05:55:51;23.90;93.30
2112;DHT22;1062;52.538;13.400;2022-07-12T05:58:17;23.30;93.10
2112;DHT22;1062;52.538;13.400;2022-07-12T06:00:44;23.40;93.60
2112;DHT22;1062;52.538;13.400;2022-07-12T06:03:10;23.80;95.10
2112;DHT22;1062;52.538;13.400;2022-07-12T06:05:35;24.20;92.30
2112;DHT22;1062;52.538;13.400;2022-07-12T06:08:01;23.20;93.70
2112;DHT22;1062;52.538;13.400;2022-07-12T06:10:27;24.00;93.10
2112;DHT22;1062;52.538;13.400;2022-07-12T06:12:53;25.00;91.90
2112;DHT22;1062;52.538;13.400;2022-07-12T06:15:18;23.90;90.80
2112;DHT22;1062;52.538;13.400;2022-07-12T06:17:44;25.10;91.90
2112;DHT22;1062;52.538;13.400;2022-07-12T06:20:10;25.60;90.70
2112;DHT22;1062;52.538;13.400;2022-07-12T06:22:36;25.60;89.70
2112;DHT22;1062;52.538;13.400;2022-07-12T06:25:02;25.80;88.80
2112;DHT22;1062;52.538;13.400;2022-07-12T06:27:28;26.10;86.40
2112;DHT22;1062;52.538;13.400;2022-07-12T06:29:53;25.80;88.10
2112;DHT22;1062;52.538;13.400;2022-07-12T06:32:19;25.60;86.60
2112;DHT22;1062;52.538;13.400;2022-07-12T06:34:45;24.90;87.50
2112;DHT22;1062;52.538;13.400;2022-07-12T06:37:10;24.80;87.80
2112;DHT22;1062;52.538;13.400;2022-07-12T06:39:38;25.70;87.00
2112;DHT22;1062;52.538;13.400;2022-07-12T06:42:04;26.00;85.10
2112;DHT22;1062;52.538;13.400;2022-07-12T06:44:30;24.60;87.30
2112;DHT22;1062;52.538;13.400;2022-07-12T06:46:56;26.20;84.60
2112;DHT22;1062;52.538;13.400;2022-07-12T06:49:22;26.50;84.10
2112;DHT22;1062;52.538;13.400;2022-07-12T06:51:47;26.30;85.30
2112;DHT22;1062;52.538;13.400;2022-07-12T06:54:13;26.20;83.60
2112;DHT22;1062;52.538;13.400;2022-07-12T06:56:39;26.00;84.80
2112;DHT22;1062;52.538;13.400;2022-07-12T06:59:04;27.00;81.90
2112;DHT22;1062;52.538;13.400;2022-07-12T07:01:30;27.60;80.80
2112;DHT22;1062;52.538;13.400;2022-07-12T07:03:55;28.40;77.00
2112;DHT22;1062;52.538;13.400;2022-07-12T07:06:21;28.00;77.20
2112;DHT22;1062;52.538;13.400;2022-07-12T07:08:46;27.30;77.70
2112;DHT22;1062;52.538;13.400;2022-07-12T07:11:12;26.70;78.00
2112;DHT22;1062;52.538;13.400;2022-07-12T07:13:38;26.70;81.00
2112;DHT22;1062;52.538;13.400;2022-07-12T07:16:05;27.70;77.50
2112;DHT22;1062;52.538;13.400;2022-07-12T07:18:30;27.90;77.50
2112;DHT22;1062;52.538;13.400;2022-07-12T07:20:56;29.10;74.30
2112;DHT22;1062;52.538;13.400;2022-07-12T07:23:21;29.30;74.20
2112;DHT22;1062;52.538;13.400;2022-07-12T07:25:47;29.50;71.80
2112;DHT22;1062;52.538;13.400;2022-07-12T07:28:13;28.80;71.70
2112;DHT22;1062;52.538;13.400;2022-07-12T07:30:39;28.30;74.20
2112;DHT22;1062;52.538;13.400;2022-07-12T07:33:23;27.00;77.80
2112;DHT22;1062;52.538;13.400;2022-07-12T07:35:50;28.40;75.80
2112;DHT22;1062;52.538;13.400;2022-07-12T07:38:17;29.00;72.00
2112;DHT22;1062;52.538;13.400;2022-07-12T07:40:43;29.10;73.00
2112;DHT22;1062;52.538;13.400;2022-07-12T07:43:09;28.00;72.20
2112;DHT22;1062;52.538;13.400;2022-07-12T07:45:34;28.20;71.70
2112;DHT22;1062;52.538;13.400;2022-07-12T07:48:00;29.10;71.90
2112;DHT22;1062;52.538;13.400;2022-07-12T07:50:26;27.60;76.20
2112;DHT22;1062;52.538;13.400;2022-07-12T07:52:52;26.20;79.00
2112;DHT22;1062;52.538;13.400;2022-07-12T07:55:18;27.30;78.10
2112;DHT22;1062;52.538;13.400;2022-07-12T07:57:43;26.80;76.30
2112;DHT22;1062;52.538;13.400;2022-07-12T08:00:10;28.30;73.90
2112;DHT22;1062;52.538;13.400;2022-07-12T08:02:35;28.10;73.50
2112;DHT22;1062;52.538;13.400;2022-07-12T08:05:02;27.30;71.50
2112;DHT22;1062;52.538;13.400;2022-07-12T08:07:27;26.30;76.20
2112;DHT22;1062;52.538;13.400;2022-07-12T08:09:53;26.80;75.00
2112;DHT22;1062;52.538;13.400;2022-07-12T08:12:18;27.90;72.40
2112;DHT22;1062;52.538;13.400;2022-07-12T08:14:44;29.10;68.50
2112;DHT22;1062;52.538;13.400;2022-07-12T08:17:10;28.40;69.20
2112;DHT22;1062;52.538;13.400;2022-07-12T08:19:35;28.70;70.40
2112;DHT22;1062;52.538;13.400;2022-07-12T08:22:01;28.20;72.10
2112;DHT22;1062;52.538;13.400;2022-07-12T08:24:26;27.50;72.70
2112;DHT22;1062;52.538;13.400;2022-07-12T08:26:52;27.30;73.50
2112;DHT22;1062;52.538;13.400;2022-07-12T08:29:17;27.80;73.80
2112;DHT22;1062;52.538;13.400;2022-07-12T08:31:43;28.90;70.20
2112;DHT22;1062;52.538;13.400;2022-07-12T08:34:08;30.10;66.60
2112;DHT22;1062;52.538;13.400;2022-07-12T08:36:34;28.30;69.10
2112;DHT22;1062;52.538;13.400;2022-07-12T08:39:00;27.90;69.90
2112;DHT22;1062;52.538;13.400;2022-07-12T08:41:25;27.80;68.00
2112;DHT22;1062;52.538;13.400;2022-07-12T08:43:51;28.40;66.50
2112;DHT22;1062;52.538;13.400;2022-07-12T08:46:17;28.80;66.40
2112;DHT22;1062;52.538;13.400;2022-07-12T08:48:43;29.20;62.20
2112;DHT22;1062;52.538;13.400;2022-07-12T08:51:20;29.00;62.90
2112;DHT22;1062;52.538;13.400;2022-07-12T08:53:45;29.50;62.40
2112;DHT22;1062;52.538;13.400;2022-07-12T08:56:34;28.80;65.50
2112;DHT22;1062;52.538;13.400;2022-07-12T08:59:17;28.60;66.20
2112;DHT22;1062;52.538;13.400;2022-07-12T09:01:53;27.50;65.50
2112;DHT22;1062;52.538;13.400;2022-07-12T09:04:21;27.90;65.50
2112;DHT22;1062;52.538;13.400;2022-07-12T09:06:47;29.10;65.50
2112;DHT22;1062;52.538;13.400;2022-07-12T09:09:32;27.20;68.20
2112;DHT22;1062;52.538;13.400;2022-07-12T09:11:59;28.60;62.30
2112;DHT22;1062;52.538;13.400;2022-07-12T09:14:24;28.30;63.90
2112;DHT22;1062;52.538;13.400;2022-07-12T09:17:08;27.90;62.80
2112;DHT22;1062;52.538;13.400;2022-07-12T09:19:39;29.20;61.20
2112;DHT22;1062;52.538;13.400;2022-07-12T09:22:14;27.70;63.80
2112;DHT22;1062;52.538;13.400;2022-07-12T09:24:42;28.20;66.50
2112;DHT22;1062;52.538;13.400;2022-07-12T09:27:07;28.90;63.40
2112;DHT22;1062;52.538;13.400;2022-07-12T09:29:49;29.60;62.40
2112;DHT22;1062;52.538;13.400;2022-07-12T09:32:15;27.30;65.20
2112;DHT22;1062;52.538;13.400;2022-07-12T09:35:00;28.30;66.50
2112;DHT22;1062;52.538;13.400;2022-07-12T09:37:44;28.40;66.50
2112;DHT22;1062;52.538;13.400;2022-07-12T09:40:10;29.80;61.50
2112;DHT22;1062;52.538;13.400;2022-07-12T09:42:36;27.80;63.30
2112;DHT22;1062;52.538;13.400;2022-07-12T09:45:03;29.20;63.10
2112;DHT22;1062;52.538;13.400;2022-07-12T09:47:30;29.50;62.80
2112;DHT22;1062;52.538;13.400;2022-07-12T09:49:55;29.10;61.90
2112;DHT22;1062;52.538;13.400;2022-07-12T09:52:22;30.10;61.50
2112;DHT22;1062;52.538;13.400;2022-07-12T09:54:51;29.20;59.40
2112;DHT22;1062;52.538;13.400;2022-07-12T09:57:32;29.60;58.60
2112;DHT22;1062;52.538;13.400;2022-07-12T09:59:59;28.10;62.20
2112;DHT22;1062;52.538;13.400;2022-07-12T10:02:25;27.70;66.50
2112;DHT22;1062;52.538;13.400;2022-07-12T10:04:52;28.00;64.20
2112;DHT22;1062;52.538;13.400;2022-07-12T10:07:18;28.80;61.50
2112;DHT22;1062;52.538;13.400;2022-07-12T10:09:46;28.80;60.20
2112;DHT22;1062;52.538;13.400;2022-07-12T10:12:15;28.40;61.40
2112;DHT22;1062;52.538;13.400;2022-07-12T10:14:42;27.70;61.60
2112;DHT22;1062;52.538;13.400;2022-07-12T10:17:09;27.80;60.80
2112;DHT22;1062;52.538;13.400;2022-07-12T10:19:36;28.10;60.60
2112;DHT22;1062;52.538;13.400;2022-07-12T10:22:03;27.10;61.00
2112;DHT22;1062;52.538;13.400;2022-07-12T10:29:42;27.70;61.30
2112;DHT22;1062;52.538;13.400;2022-07-12T10:32:25;26.80;62.40
2112;DHT22;1062;52.538;13.400;2022-07-12T10:35:03;26.30;64.10
2112;DHT22;1062;52.538;13.400;2022-07-12T10:37:30;25.60;66.00
2112;DHT22;1062;52.538;13.400;2022-07-12T10:40:18;26.40;65.10
2112;DHT22;1062;52.538;13.400;2022-07-12T10:45:32;26.80;64.70
2112;DHT22;1062;52.538;13.400;2022-07-12T11:01:32;26.60;66.70
2112;DHT22;1062;52.538;13.400;2022-07-12T11:04:09;26.30;68.10
2112;DHT22;1062;52.538;13.400;2022-07-12T11:06:39;26.10;67.30
2112;DHT22;1062;52.538;13.400;2022-07-12T11:09:10;26.50;67.10
2112;DHT22;1062;52.538;13.400;2022-07-12T11:11:44;26.10;67.50
2112;DHT22;1062;52.538;13.400;2022-07-12T11:14:10;26.90;66.70
2112;DHT22;1062;52.538;13.400;2022-07-12T11:16:44;26.90;67.70
2112;DHT22;1062;52.538;13.400;2022-07-12T11:19:10;27.20;66.30
2112;DHT22;1062;52.538;13.400;2022-07-12T11:21:35;26.30;67.60
2112;DHT22;1062;52.538;13.400;2022-07-12T11:24:01;26.50;67.50
2112;DHT22;1062;52.538;13.400;2022-07-12T11:26:27;26.50;67.60
2112;DHT22;1062;52.538;13.400;2022-07-12T11:28:57;26.70;66.90
2112;DHT22;1062;52.538;13.400;2022-07-12T11:31:25;26.70;67.70
2112;DHT22;1062;52.538;13.400;2022-07-12T11:33:50;26.40;69.70
2112;DHT22;1062;52.538;13.400;2022-07-12T11:36:16;26.30;69.50
2112;DHT22;1062;52.538;13.400;2022-07-12T11:38:44;25.70;71.10
2112;DHT22;1062;52.538;13.400;2022-07-12T11:41:11;25.80;71.30
2112;DHT22;1062;52.538;13.400;2022-07-12T11:43:38;26.00;71.20
2112;DHT22;1062;52.538;13.400;2022-07-12T11:46:05;25.90;70.40
2112;DHT22;1062;52.538;13.400;2022-07-12T11:48:31;26.00;70.70
2112;DHT22;1062;52.538;13.400;2022-07-12T11:51:01;26.30;70.00
2112;DHT22;1062;52.538;13.400;2022-07-12T11:53:28;26.50;69.80
2112;DHT22;1062;52.538;13.400;2022-07-12T11:55:56;27.10;69.50
2112;DHT22;1062;52.538;13.400;2022-07-12T11:58:23;27.00;68.60
2112;DHT22;1062;52.538;13.400;2022-07-12T12:00:50;27.10;69.40
2112;DHT22;1062;52.538;13.400;2022-07-12T12:03:17;27.10;68.70
2112;DHT22;1062;52.538;13.400;2022-07-12T12:05:46;27.00;69.00
2112;DHT22;1062;52.538;13.400;2022-07-12T12:08:12;26.70;68.40
2112;DHT22;1062;52.538;13.400;2022-07-12T12:10:40;27.00;69.40
2112;DHT22;1062;52.538;13.400;2022-07-12T12:13:13;27.60;66.80
2112;DHT22;1062;52.538;13.400;2022-07-12T12:15:40;26.80;68.40
2112;DHT22;1062;52.538;13.400;2022-07-12T12:18:07;26.30;67.90
2112;DHT22;1062;52.538;13.400;2022-07-12T12:20:38;26.90;67.00
2112;DHT22;1062;52.538;13.400;2022-07-12T12:23:05;27.10;65.40
2112;DHT22;1062;52.538;13.400;2022-07-12T12:25:32;27.00;66.40
2112;DHT22;1062;52.538;13.400;2022-07-12T12:27:59;26.80;68.20
2112;DHT22;1062;52.538;13.400;2022-07-12T12:30:34;27.10;68.50
2112;DHT22;1062;52.538;13.400;2022-07-12T12:33:02;27.30;66.60
2112;DHT22;1062;52.538;13.400;2022-07-12T12:35:33;27.30;65.40
2112;DHT22;1062;52.538;13.400;2022-07-12T12:40:32;27.80;64.20
2112;DHT22;1062;52.538;13.400;2022-07-12T12:43:13;27.80;64.50
2112;DHT22;1062;52.538;13.400;2022-07-12T12:45:49;27.30;64.80
2112;DHT22;1062;52.538;13.400;2022-07-12T12:48:20;26.70;65.30
2112;DHT22;1062;52.538;13.400;2022-07-12T12:50:48;26.60;65.50
2112;DHT22;1062;52.538;13.400;2022-07-12T12:55:45;26.50;67.40
2112;DHT22;1062;52.538;13.400;2022-07-12T12:58:11;26.70;67.80
2112;DHT22;1062;52.538;13.400;2022-07-12T13:00:42;26.90;67.60
2112;DHT22;1062;52.538;13.400;2022-07-12T13:03:10;26.70;67.30
2112;DHT22;1062;52.538;13.400;2022-07-12T13:05:36;26.60;68.30
2112;DHT22;1062;52.538;13.400;2022-07-12T13:08:03;26.70;68.60
2112;DHT22;1062;52.538;13.400;2022-07-12T13:10:29;26.90;68.20
2112;DHT22;1062;52.538;13.400;2022-07-12T13:12:56;26.90;67.60
2112;DHT22;1062;52.538;13.400;2022-07-12T13:15:21;26.90;66.80
2112;DHT22;1062;52.538;13.400;2022-07-12T13:17:47;26.60;67.60
2112;DHT22;1062;52.538;13.400;2022-07-12T13:20:14;26.40;68.40
2112;DHT22;1062;52.538;13.400;2022-07-12T13:22:40;26.30;69.80
2112;DHT22;1062;52.538;13.400;2022-07-12T13:25:07;26.40;68.50
2112;DHT22;1062;52.538;13.400;2022-07-12T13:27:33;26.50;70.00
2112;DHT22;1062;52.538;13.400;2022-07-12T13:29:59;26.80;68.60
2112;DHT22;1062;52.538;13.400;2022-07-12T13:32:25;26.50;68.80
2112;DHT22;1062;52.538;13.400;2022-07-12T13:34:51;26.60;69.10
2112;DHT22;1062;52.538;13.400;2022-07-12T13:37:17;26.30;69.40
2112;DHT22;1062;52.538;13.400;2022-07-12T13:39:43;26.40;69.10
2112;DHT22;1062;52.538;13.400;2022-07-12T13:42:27;26.50;67.90
2112;DHT22;1062;52.538;13.400;2022-07-12T13:44:53;26.30;68.60
2112;DHT22;1062;52.538;13.400;2022-07-12T13:47:20;26.40;70.00
2112;DHT22;1062;52.538;13.400;2022-07-12T13:49:46;26.90;70.00
2112;DHT22;1062;52.538;13.400;2022-07-12T13:52:12;27.00;69.50
2112;DHT22;1062;52.538;13.400;2022-07-12T13:54:38;27.30;67.80
2112;DHT22;1062;52.538;13.400;2022-07-12T13:57:04;27.10;69.40
2112;DHT22;1062;52.538;13.400;2022-07-12T13:59:29;26.90;68.40
2112;DHT22;1062;52.538;13.400;2022-07-12T14:01:55;27.10;68.40
2112;DHT22;1062;52.538;13.400;2022-07-12T14:04:21;27.00;68.90
2112;DHT22;1062;52.538;13.400;2022-07-12T14:06:46;27.10;68.90
2112;DHT22;1062;52.538;13.400;2022-07-12T14:09:14;26.90;69.20
2112;DHT22;1062;52.538;13.400;2022-07-12T14:11:40;26.50;69.30
2112;DHT22;1062;52.538;13.400;2022-07-12T14:14:05;26.30;69.10
2112;DHT22;1062;52.538;13.400;2022-07-12T14:16:32;26.40;69.10
2112;DHT22;1062;52.538;13.400;2022-07-12T14:18:58;26.50;69.20
2112;DHT22;1062;52.538;13.400;2022-07-12T14:21:24;26.60;68.70
2112;DHT22;1062;52.538;13.400;2022-07-12T14:23:50;26.60;68.30
2112;DHT22;1062;52.538;13.400;2022-07-12T14:26:16;26.50;68.70
2112;DHT22;1062;52.538;13.400;2022-07-12T14:28:41;26.60;70.00
2112;DHT22;1062;52.538;13.400;2022-07-12T14:31:07;26.60;69.60
2112;DHT22;1062;52.538;13.400;2022-07-12T14:33:33;26.90;69.70
2112;DHT22;1062;52.538;13.400;2022-07-12T14:35:59;27.10;69.30
2112;DHT22;1062;52.538;13.400;2022-07-12T14:38:24;27.20;68.90
2112;DHT22;1062;52.538;13.400;2022-07-12T14:40:50;27.30;68.10
2112;DHT22;1062;52.538;13.400;2022-07-12T14:43:15;27.30;66.50
2112;DHT22;1062;52.538;13.400;2022-07-12T14:45:42;27.10;67.20
2112;DHT22;1062;52.538;13.400;2022-07-12T14:48:08;26.90;67.60
2112;DHT22;1062;52.538;13.400;2022-07-12T14:50:33;26.80;68.40
2112;DHT22;1062;52.538;13.400;2022-07-12T14:52:59;26.70;68.20
2112;DHT22;1062;52.538;13.400;2022-07-12T14:55:24;26.50;69.00
2112;DHT22;1062;52.538;13.400;2022-07-12T14:57:50;26.40;69.20
2112;DHT22;1062;52.538;13.400;2022-07-12T15:00:15;26.50;69.00
2112;DHT22;1062;52.538;13.400;2022-07-12T15:02:41;26.40;69.20
2112;DHT22;1062;52.538;13.400;2022-07-12T15:05:07;26.50;69.50
2112;DHT22;1062;52.538;13.400;2022-07-12T15:07:33;26.70;69.20
2112;DHT22;1062;52.538;13.400;2022-07-12T15:09:59;26.70;69.90
2112;DHT22;1062;52.538;13.400;2022-07-12T15:12:25;26.90;68.20
2112;DHT22;1062;52.538;13.400;2022-07-12T15:14:51;27.00;69.20
2112;DHT22;1062;52.538;13.400;2022-07-12T15:17:17;27.10;69.70
2112;DHT22;1062;52.538;13.400;2022-07-12T15:19:44;27.10;69.40
2112;DHT22;1062;52.538;13.400;2022-07-12T15:22:10;27.10;68.30
2112;DHT22;1062;52.538;13.400;2022-07-12T15:24:37;27.10;68.20
2112;DHT22;1062;52.538;13.400;2022-07-12T15:27:03;27.20;68.20
2112;DHT22;1062;52.538;13.400;2022-07-12T15:29:32;27.30;67.80
2112;DHT22;1062;52.538;13.400;2022-07-12T15:31:57;27.20;67.90
2112;DHT22;1062;52.538;13.400;2022-07-12T15:34:23;27.00;68.50
2112;DHT22;1062;52.538;13.400;2022-07-12T15:36:48;26.70;69.50
2112;DHT22;1062;52.538;13.400;2022-07-12T15:39:14;26.70;69.40
2112;DHT22;1062;52.538;13.400;2022-07-12T15:41:39;26.70;69.00
2112;DHT22;1062;52.538;13.400;2022-07-12T15:44:06;26.50;69.50
2112;DHT22;1062;52.538;13.400;2022-07-12T15:46:31;26.10;70.10
2112;DHT22;1062;52.538;13.400;2022-07-12T15:48:57;26.10;70.10
2112;DHT22;1062;52.538;13.400;2022-07-12T15:51:23;26.20;70.20
2112;DHT22;1062;52.538;13.400;2022-07-12T15:54:09;26.50;69.70
2112;DHT22;1062;52.538;13.400;2022-07-12T15:56:34;26.70;69.00
2112;DHT22;1062;52.538;13.400;2022-07-12T15:59:00;26.70;69.80
2112;DHT22;1062;52.538;13.400;2022-07-12T16:01:25;26.80;70.30
2112;DHT22;1062;52.538;13.400;2022-07-12T16:03:51;26.90;69.70
2112;DHT22;1062;52.538;13.400;2022-07-12T16:06:17;26.70;69.40
2112;DHT22;1062;52.538;13.400;2022-07-12T16:08:42;26.80;68.70
2112;DHT22;1062;52.538;13.400;2022-07-12T16:11:11;26.70;68.90